Time;durP1;ratioP1;P1;durP2;ratioP2;P2;SDS_P1;SDS_P2;PMS_P1;PMS_P2;Temp;Humidity;BMP_temperature;BMP_pressure;BME280_temperature;BME280_humidity;BME280_pressure;Samples;Min_cycle;Max_cycle;Signal;HPM_P1;HPM_P2
2022/06/24 00:00:11;;;;;;;5.90;1.00;;;26.00;52.00;;;;;;964894;146;27331;-72
2022/06/24 00:02:38;;;;;;;4.58;1.10;;;26.00;52.00;;;;;;963363;146;27388;-72
2022/06/24 00:05:13;;;;;;;3.17;0.95;;;26.00;52.00;;;;;;963707;146;27764;-72
2022/06/24 00:07:49;;;;;;;3.80;1.42;;;26.00;52.10;;;;;;964597;146;27289;-72
2022/06/24 00:10:15;;;;;;;9.33;1.20;;;25.90;52.10;;;;;;962961;146;27336;-72
2022/06/24 00:12:42;;;;;;;3.10;1.25;;;25.90;52.10;;;;;;963870;146;27322;-72
2022/06/24 00:15:09;;;;;;;3.95;1.27;;;25.90;52.30;;;;;;963349;146;27288;-73
2022/06/24 00:17:35;;;;;;;1.62;1.00;;;25.80;52.30;;;;;;964674;146;27821;-72
2022/06/24 00:20:07;;;;;;;1.57;1.07;;;25.80;52.30;;;;;;960395;146;27344;-72
2022/06/24 00:22:44;;;;;;;3.00;1.07;;;25.80;52.40;;;;;;964005;146;27316;-73
2022/06/24 00:25:10;;;;;;;1.25;0.98;;;25.70;52.40;;;;;;957905;146;27463;-72
2022/06/24 00:27:36;;;;;;;2.30;1.20;;;25.70;52.50;;;;;;944947;149;27234;-72
2022/06/24 00:30:10;;;;;;;2.00;0.95;;;25.60;52.60;;;;;;945262;149;27674;-73
2022/06/24 00:32:35;;;;;;;2.17;0.88;;;25.60;52.70;;;;;;944948;149;27802;-72
2022/06/24 00:35:02;;;;;;;1.50;1.05;;;25.60;52.80;;;;;;944684;149;27355;-72
2022/06/24 00:37:29;;;;;;;3.10;0.80;;;25.50;52.90;;;;;;944451;149;27284;-72
2022/06/24 00:39:58;;;;;;;2.30;0.90;;;25.50;53.00;;;;;;945301;149;27308;-73
2022/06/24 00:42:25;;;;;;;5.28;1.27;;;25.40;53.10;;;;;;941350;149;27320;-72
2022/06/24 00:44:51;;;;;;;2.67;0.98;;;25.40;53.30;;;;;;944484;149;27293;-72
2022/06/24 00:47:18;;;;;;;1.00;0.68;;;25.30;53.30;;;;;;944153;149;27315;-72
2022/06/24 00:49:45;;;;;;;1.92;1.00;;;25.20;53.40;;;;;;944936;149;27346;-73
2022/06/24 00:52:11;;;;;;;2.00;1.00;;;25.20;53.70;;;;;;944973;149;27355;-72
2022/06/24 00:54:38;;;;;;;2.40;0.72;;;25.10;53.70;;;;;;945509;149;27240;-71
2022/06/24 00:57:04;;;;;;;1.42;0.88;;;25.10;53.90;;;;;;944450;149;27249;-72
2022/06/24 00:59:34;;;;;;;5.60;1.10;;;25.00;54.00;;;;;;944869;149;27311;-72
2022/06/24 01:02:00;;;;;;;3.90;1.20;;;25.00;54.10;;;;;;945130;149;27398;-73
2022/06/24 01:04:27;;;;;;;1.75;1.10;;;24.90;54.20;;;;;;944821;149;27350;-72
2022/06/24 01:06:53;;;;;;;0.57;0.57;;;24.90;54.40;;;;;;944880;148;27336;-72
2022/06/24 01:09:20;;;;;;;2.65;1.05;;;24.90;54.60;;;;;;945096;149;27429;-73
2022/06/24 01:11:47;;;;;;;0.78;0.62;;;24.90;54.60;;;;;;945363;149;27407;-73
2022/06/24 01:14:13;;;;;;;2.37;0.93;;;24.80;54.70;;;;;;944810;149;27351;-72
2022/06/24 01:16:40;;;;;;;1.67;1.00;;;24.80;54.90;;;;;;944827;149;27287;-72
2022/06/24 01:19:06;;;;;;;1.55;0.98;;;24.80;55.00;;;;;;945329;149;27763;-72
2022/06/24 01:21:42;;;;;;;0.98;0.78;;;24.70;55.10;;;;;;944589;149;27311;-72
2022/06/24 01:24:11;;;;;;;1.55;1.10;;;24.70;55.20;;;;;;944730;149;27429;-73
2022/06/24 01:26:38;;;;;;;1.85;0.82;;;24.70;55.30;;;;;;940535;149;27361;-72
2022/06/24 01:29:04;;;;;;;2.40;0.90;;;24.70;55.40;;;;;;937862;149;27395;-72
2022/06/24 01:31:31;;;;;;;1.40;1.10;;;24.70;55.50;;;;;;937804;149;27325;-72
2022/06/24 01:33:57;;;;;;;3.37;1.37;;;24.70;55.70;;;;;;938943;149;27294;-72
2022/06/24 01:36:24;;;;;;;1.05;0.90;;;24.60;55.70;;;;;;939014;149;27825;-72
2022/06/24 01:38:51;;;;;;;1.77;1.05;;;24.60;56.00;;;;;;937931;149;27426;-71
2022/06/24 01:41:17;;;;;;;4.53;1.02;;;24.60;56.30;;;;;;938327;149;27434;-72
2022/06/24 01:43:44;;;;;;;1.40;1.02;;;24.60;56.90;;;;;;939877;149;27346;-72
2022/06/24 01:46:13;;;;;;;1.35;0.90;;;24.50;57.20;;;;;;938371;149;27344;-72
2022/06/24 01:48:37;;;;;;;1.98;0.90;;;24.50;57.50;;;;;;937382;149;27259;-72
2022/06/24 01:51:04;;;;;;;1.90;1.00;;;24.50;57.70;;;;;;939483;149;27659;-72
2022/06/24 01:53:30;;;;;;;1.80;1.10;;;24.40;57.90;;;;;;937025;149;27431;-73
2022/06/24 01:55:57;;;;;;;1.67;0.90;;;24.30;58.30;;;;;;938239;149;27447;-73
2022/06/24 01:58:23;;;;;;;4.30;1.40;;;24.30;58.60;;;;;;938555;149;27932;-72
2022/06/24 02:00:50;;;;;;;4.85;1.47;;;24.20;58.10;;;;;;938646;149;27326;-72
2022/06/24 02:03:17;;;;;;;2.85;1.00;;;24.10;59.20;;;;;;937425;149;27289;-72
2022/06/24 02:05:43;;;;;;;2.60;1.30;;;24.00;59.60;;;;;;937924;149;27285;-72
2022/06/24 02:08:10;;;;;;;1.75;0.95;;;23.90;59.90;;;;;;940124;149;27725;-72
2022/06/24 02:13:27;;;;;;;1.85;1.27;;;23.70;60.60;;;;;;938468;149;27441;-73
2022/06/24 02:16:02;;;;;;;2.12;1.02;;;23.60;60.90;;;;;;937953;149;27482;-73
2022/06/24 02:18:29;;;;;;;2.87;1.20;;;23.60;61.20;;;;;;938082;149;28572;-72
2022/06/24 02:20:55;;;;;;;1.12;0.80;;;23.50;61.40;;;;;;939189;149;27491;-72
2022/06/24 02:23:22;;;;;;;2.55;1.02;;;23.40;61.70;;;;;;937664;149;28094;-72
2022/06/24 02:25:49;;;;;;;2.05;1.15;;;23.30;62.30;;;;;;940038;149;27388;-73
2022/06/24 02:28:15;;;;;;;2.05;1.57;;;23.30;62.70;;;;;;948995;147;27386;-72
2022/06/24 02:30:42;;;;;;;1.65;1.20;;;23.20;63.20;;;;;;947387;147;27332;-73
2022/06/24 02:33:08;;;;;;;2.40;1.17;;;23.10;63.50;;;;;;947197;147;27336;-72
2022/06/24 02:35:35;;;;;;;2.40;1.57;;;23.00;63.90;;;;;;948172;147;27317;-72
2022/06/24 02:38:01;;;;;;;2.55;1.27;;;23.00;64.10;;;;;;950816;147;27312;-72
2022/06/24 02:40:47;;;;;;;3.70;1.37;;;23.00;64.60;;;;;;948548;147;27295;-74
2022/06/24 02:43:22;;;;;;;3.80;1.22;;;22.90;64.90;;;;;;949174;147;27433;-75
2022/06/24 02:45:54;;;;;;;1.22;1.12;;;22.80;65.10;;;;;;949666;147;27428;-75
2022/06/24 02:48:20;;;;;;;1.40;0.90;;;22.80;65.40;;;;;;948573;147;27340;-74
2022/06/24 02:50:47;;;;;;;2.95;1.20;;;22.70;65.80;;;;;;948081;147;27349;-75
2022/06/24 02:53:14;;;;;;;1.62;1.20;;;22.70;66.10;;;;;;949104;147;27971;-75
2022/06/24 02:55:40;;;;;;;2.65;1.40;;;22.60;66.30;;;;;;947277;147;27285;-76
2022/06/24 02:58:07;;;;;;;1.90;0.93;;;22.60;66.60;;;;;;948063;147;28022;-74
2022/06/24 03:00:33;;;;;;;2.17;1.40;;;22.50;67.00;;;;;;947767;147;27390;-72
2022/06/24 03:03:00;;;;;;;2.42;1.20;;;22.50;67.40;;;;;;948877;147;27416;-72
2022/06/24 03:05:26;;;;;;;2.45;1.40;;;22.40;67.70;;;;;;948259;147;27337;-75
2022/06/24 03:07:53;;;;;;;2.47;1.60;;;22.30;68.10;;;;;;947830;147;27343;-74
2022/06/24 03:10:20;;;;;;;3.00;1.20;;;22.20;68.50;;;;;;947590;147;27305;-74
2022/06/24 03:12:46;;;;;;;2.47;1.42;;;22.20;68.90;;;;;;948560;147;27313;-75
2022/06/24 03:15:13;;;;;;;5.00;1.22;;;22.10;69.30;;;;;;947125;147;27396;-74
2022/06/24 03:17:39;;;;;;;2.65;1.75;;;22.00;70.00;;;;;;947612;147;27337;-75
2022/06/24 03:20:06;;;;;;;2.30;1.52;;;21.90;70.60;;;;;;949443;147;27429;-75
2022/06/24 03:22:33;;;;;;;3.65;1.77;;;21.90;71.20;;;;;;948673;147;27333;-72
2022/06/24 03:24:59;;;;;;;3.08;1.40;;;21.90;71.60;;;;;;948678;147;27274;-73
2022/06/24 03:27:26;;;;;;;4.87;1.40;;;21.80;71.70;;;;;;952432;146;27402;-75
2022/06/24 03:29:52;;;;;;;3.77;1.42;;;21.80;72.50;;;;;;957330;146;27318;-74
2022/06/24 03:32:19;;;;;;;1.60;1.32;;;21.80;72.90;;;;;;956047;146;27311;-74
2022/06/24 03:34:46;;;;;;;1.40;1.30;;;21.80;73.40;;;;;;955585;146;27278;-73
2022/06/24 03:37:12;;;;;;;2.52;1.50;;;21.80;73.80;;;;;;957598;146;27398;-73
2022/06/24 03:39:39;;;;;;;3.25;1.50;;;21.70;74.30;;;;;;957070;146;27429;-72
2022/06/24 03:42:05;;;;;;;4.17;1.90;;;21.70;74.40;;;;;;956659;146;27450;-74
2022/06/24 03:44:32;;;;;;;3.37;1.52;;;21.60;75.70;;;;;;956247;146;27309;-75
2022/06/24 03:46:59;;;;;;;1.77;1.37;;;21.60;75.30;;;;;;956726;146;27434;-74
2022/06/24 03:49:25;;;;;;;2.60;1.62;;;21.60;75.60;;;;;;956237;146;27303;-74
2022/06/24 03:51:52;;;;;;;3.83;1.75;;;21.60;76.10;;;;;;958203;146;27387;-72
2022/06/24 03:54:18;;;;;;;3.67;1.87;;;21.60;76.50;;;;;;957319;146;27308;-74
2022/06/24 03:56:45;;;;;;;2.05;1.45;;;21.60;76.90;;;;;;957532;146;27388;-73
2022/06/24 03:59:11;;;;;;;2.08;1.65;;;21.60;77.60;;;;;;955815;146;27341;-72
2022/06/24 04:01:38;;;;;;;2.20;1.40;;;21.50;78.10;;;;;;956920;146;27324;-75
2022/06/24 04:04:05;;;;;;;2.77;2.00;;;21.50;78.40;;;;;;957703;146;27278;-74
2022/06/24 04:06:31;;;;;;;2.22;1.40;;;21.50;78.90;;;;;;958711;146;27303;-74
2022/06/24 04:08:58;;;;;;;2.67;1.37;;;21.60;79.20;;;;;;959255;146;27485;-74
2022/06/24 04:11:24;;;;;;;2.17;1.57;;;21.60;79.70;;;;;;958870;146;27276;-73
2022/06/24 04:13:51;;;;;;;3.52;1.95;;;21.60;79.80;;;;;;957958;146;27437;-74
2022/06/24 04:16:18;;;;;;;2.92;1.85;;;21.60;80.70;;;;;;958683;146;27734;-74
2022/06/24 04:18:44;;;;;;;4.20;1.80;;;21.60;81.00;;;;;;957310;146;27339;-74
2022/06/24 04:21:13;;;;;;;2.12;1.77;;;21.60;81.50;;;;;;958486;146;27638;-73
2022/06/24 04:23:40;;;;;;;6.25;1.87;;;21.60;82.40;;;;;;957222;146;27383;-74
2022/06/24 04:26:07;;;;;;;3.65;1.70;;;21.60;82.80;;;;;;957502;146;27387;-74
2022/06/24 04:28:33;;;;;;;2.60;1.80;;;21.60;83.30;;;;;;952022;146;27420;-74
2022/06/24 04:31:00;;;;;;;4.22;1.90;;;21.70;84.30;;;;;;948638;147;27361;-73
2022/06/24 04:33:26;;;;;;;4.22;1.90;;;21.70;84.00;;;;;;947118;147;29021;-74
2022/06/24 04:35:53;;;;;;;1.77;1.65;;;21.70;84.60;;;;;;947755;147;27352;-74
2022/06/24 04:38:20;;;;;;;2.85;2.20;;;21.70;84.90;;;;;;947513;147;27312;-74
2022/06/24 04:40:46;;;;;;;4.37;2.22;;;21.70;85.40;;;;;;949680;147;27248;-74
2022/06/24 04:43:13;;;;;;;2.37;1.75;;;21.80;85.70;;;;;;948829;147;27327;-74
2022/06/24 04:45:39;;;;;;;2.42;2.00;;;21.80;86.20;;;;;;947250;147;27417;-72
2022/06/24 04:48:06;;;;;;;2.58;2.10;;;21.90;86.50;;;;;;949410;147;27436;-74
2022/06/24 04:50:33;;;;;;;2.72;2.52;;;21.90;86.40;;;;;;946711;147;27376;-74
2022/06/24 04:52:59;;;;;;;4.60;1.90;;;21.90;86.80;;;;;;948076;147;27633;-73
2022/06/24 04:55:26;;;;;;;4.05;1.92;;;21.90;87.00;;;;;;947592;147;27294;-74
2022/06/24 04:57:52;;;;;;;2.08;1.77;;;22.00;87.40;;;;;;949111;147;27331;-74
2022/06/24 05:00:19;;;;;;;3.70;1.77;;;22.00;87.30;;;;;;948285;147;27354;-71
2022/06/24 05:02:45;;;;;;;2.62;1.72;;;22.00;87.30;;;;;;949366;147;27321;-74
2022/06/24 05:05:12;;;;;;;2.17;1.67;;;22.00;87.60;;;;;;947524;147;27452;-74
2022/06/24 05:07:39;;;;;;;2.37;2.05;;;22.00;87.80;;;;;;948782;147;27301;-73
2022/06/24 05:10:05;;;;;;;3.50;1.65;;;22.00;88.20;;;;;;947251;147;27425;-74
2022/06/24 05:12:32;;;;;;;3.30;1.57;;;22.00;88.60;;;;;;947463;147;27465;-74
2022/06/24 05:14:58;;;;;;;2.58;2.35;;;22.10;88.60;;;;;;947816;147;27912;-75
2022/06/24 05:17:26;;;;;;;4.00;1.50;;;22.10;88.70;;;;;;948365;147;27914;-72
2022/06/24 05:19:52;;;;;;;1.92;1.72;;;22.10;89.40;;;;;;947805;147;27303;-73
2022/06/24 05:22:18;;;;;;;2.37;1.60;;;22.20;89.90;;;;;;949412;147;27286;-72
2022/06/24 05:24:45;;;;;;;3.10;1.60;;;22.30;89.90;;;;;;948356;147;27340;-75
2022/06/24 05:27:11;;;;;;;1.65;1.55;;;22.30;90.10;;;;;;949279;147;27998;-74
2022/06/24 05:29:38;;;;;;;3.25;1.40;;;22.40;90.20;;;;;;953543;146;27444;-76
2022/06/24 05:32:05;;;;;;;2.50;1.65;;;22.50;90.30;;;;;;954439;146;27281;-76
2022/06/24 05:34:31;;;;;;;2.70;1.67;;;22.70;90.40;;;;;;954381;146;27302;-76
2022/06/24 05:36:58;;;;;;;2.77;1.60;;;22.70;90.70;;;;;;955674;146;27429;-71
2022/06/24 05:39:24;;;;;;;2.20;1.80;;;22.90;90.60;;;;;;952736;146;27334;-74
2022/06/24 05:41:51;;;;;;;2.87;1.67;;;23.10;90.60;;;;;;952829;146;27322;-73
2022/06/24 05:44:18;;;;;;;2.27;1.95;;;23.20;90.50;;;;;;954536;146;27401;-73
2022/06/24 05:46:44;;;;;;;3.15;2.10;;;23.30;90.20;;;;;;954760;146;27364;-71
2022/06/24 05:49:11;;;;;;;2.55;2.00;;;23.50;90.00;;;;;;955300;146;27417;-73
2022/06/24 05:51:37;;;;;;;1.92;1.60;;;23.60;90.00;;;;;;954195;146;27303;-73
2022/06/24 05:56:49;;;;;;;3.40;2.00;;;23.90;90.10;;;;;;955302;146;27339;-73
2022/06/24 05:59:15;;;;;;;2.33;1.85;;;24.20;90.50;;;;;;955721;146;27337;-74
2022/06/24 06:01:42;;;;;;;3.87;1.60;;;24.50;90.80;;;;;;954106;146;27433;-72
2022/06/24 06:04:09;;;;;;;2.10;1.67;;;24.90;91.10;;;;;;954351;146;27339;-72
2022/06/24 06:06:35;;;;;;;2.98;1.92;;;25.30;90.80;;;;;;954339;146;27301;-73
2022/06/24 06:09:02;;;;;;;1.95;1.85;;;25.70;90.20;;;;;;954840;146;27350;-72
2022/06/24 06:11:28;;;;;;;2.75;1.62;;;26.20;90.00;;;;;;953883;146;27391;-73
2022/06/24 06:13:55;;;;;;;2.30;2.00;;;26.80;89.00;;;;;;953409;146;27331;-72
2022/06/24 06:16:22;;;;;;;2.58;1.40;;;27.40;87.10;;;;;;955207;146;27337;-73
2022/06/24 06:18:48;;;;;;;1.75;1.65;;;28.00;84.10;;;;;;954001;146;27343;-73
2022/06/24 06:21:15;;;;;;;2.60;1.50;;;28.50;80.40;;;;;;952861;146;27301;-73
2022/06/24 06:23:41;;;;;;;2.25;2.05;;;29.00;76.50;;;;;;954715;146;27392;-72
2022/06/24 06:26:08;;;;;;;2.75;1.80;;;29.30;73.90;;;;;;954260;146;27328;-74
2022/06/24 06:28:35;;;;;;;2.00;1.80;;;29.60;71.10;;;;;;954513;146;27885;-72
2022/06/24 06:31:01;;;;;;;3.65;1.62;;;29.70;69.00;;;;;;953295;146;27435;-73
2022/06/24 06:33:28;;;;;;;2.72;1.30;;;29.70;67.30;;;;;;954165;146;27331;-73
2022/06/24 06:36:03;;;;;;;1.87;1.15;;;29.70;66.00;;;;;;956025;146;27296;-73
2022/06/24 06:38:30;;;;;;;1.35;1.15;;;29.50;64.80;;;;;;952831;146;27326;-71
2022/06/24 06:40:56;;;;;;;3.33;1.75;;;29.30;64.60;;;;;;953881;146;27400;-73
2022/06/24 06:43:23;;;;;;;1.35;1.20;;;29.10;64.70;;;;;;955615;146;27300;-74
2022/06/24 06:45:51;;;;;;;4.17;1.32;;;28.90;64.40;;;;;;952222;146;27316;-73
2022/06/24 06:48:16;;;;;;;2.05;1.12;;;28.70;64.70;;;;;;954245;146;27384;-74
2022/06/24 06:50:43;;;;;;;1.27;1.15;;;28.50;64.90;;;;;;955200;146;27238;-73
2022/06/24 06:53:09;;;;;;;2.25;1.50;;;28.30;64.80;;;;;;953807;146;27365;-73
2022/06/24 06:55:36;;;;;;;3.15;1.27;;;28.10;64.60;;;;;;954427;146;27639;-74
2022/06/24 06:58:03;;;;;;;2.17;1.07;;;27.90;64.90;;;;;;955199;146;27261;-73
2022/06/24 07:00:29;;;;;;;3.17;1.70;;;27.70;65.30;;;;;;952697;146;27354;-74
2022/06/24 07:02:56;;;;;;;1.57;1.12;;;27.50;65.60;;;;;;956218;146;27354;-74
2022/06/24 07:05:22;;;;;;;3.12;1.32;;;27.40;65.70;;;;;;956100;146;27332;-74
2022/06/24 07:07:49;;;;;;;1.37;1.27;;;27.20;65.70;;;;;;953574;146;27297;-74
2022/06/24 07:10:15;;;;;;;2.25;1.15;;;27.10;65.90;;;;;;954557;146;27409;-74
2022/06/24 07:12:42;;;;;;;1.40;1.30;;;26.90;66.00;;;;;;955297;146;27292;-73
2022/06/24 07:15:11;;;;;;;2.22;1.37;;;26.80;66.00;;;;;;955870;146;27427;-71
2022/06/24 07:17:35;;;;;;;2.27;1.62;;;26.70;66.10;;;;;;953754;146;27344;-74
2022/06/24 07:20:03;;;;;;;2.77;1.52;;;26.50;66.50;;;;;;953042;146;27394;-74
2022/06/24 07:22:28;;;;;;;3.17;1.40;;;26.40;66.90;;;;;;955367;146;27305;-74
2022/06/24 07:24:55;;;;;;;1.60;1.40;;;26.30;67.00;;;;;;956196;146;27305;-74
2022/06/24 07:27:22;;;;;;;2.27;1.20;;;26.10;67.10;;;;;;955335;146;27305;-72
2022/06/24 07:29:48;;;;;;;2.52;1.25;;;26.10;67.60;;;;;;953572;146;27404;-74
2022/06/24 07:32:15;;;;;;;2.50;1.22;;;26.00;68.60;;;;;;947416;147;27440;-75
2022/06/24 07:34:42;;;;;;;2.95;1.25;;;26.10;69.30;;;;;;949662;147;27413;-74
2022/06/24 07:37:08;;;;;;;2.00;1.35;;;26.20;70.40;;;;;;948479;147;27313;-75
2022/06/24 07:39:35;;;;;;;1.60;1.37;;;26.40;70.70;;;;;;947572;147;27291;-75
2022/06/24 07:42:01;;;;;;;1.37;0.98;;;26.60;70.20;;;;;;948449;147;27323;-75
2022/06/24 07:44:28;;;;;;;2.52;1.42;;;26.90;69.60;;;;;;949579;147;27322;-75
2022/06/24 07:46:54;;;;;;;1.57;1.10;;;27.00;68.60;;;;;;947229;147;27314;-74
2022/06/24 07:49:21;;;;;;;1.40;1.30;;;27.20;68.00;;;;;;947740;147;27281;-74
2022/06/24 07:51:48;;;;;;;1.87;1.15;;;27.30;66.90;;;;;;947163;147;27337;-71
2022/06/24 07:54:14;;;;;;;1.05;0.95;;;27.50;66.30;;;;;;947710;147;27343;-75
2022/06/24 07:56:59;;;;;;;1.87;1.27;;;27.70;66.90;;;;;;948533;147;27319;-76
2022/06/24 07:59:25;;;;;;;0.98;0.90;;;28.10;68.40;;;;;;948426;147;27306;-77
2022/06/24 08:01:52;;;;;;;1.17;0.93;;;28.60;68.20;;;;;;944817;147;27305;-76
2022/06/24 08:04:19;;;;;;;1.30;1.20;;;29.30;68.50;;;;;;948672;147;27287;-73
2022/06/24 08:06:46;;;;;;;1.00;0.90;;;30.00;68.50;;;;;;948942;147;27353;-77
2022/06/24 08:09:12;;;;;;;2.30;1.30;;;30.90;67.70;;;;;;947276;147;27384;-77
2022/06/24 08:11:38;;;;;;;2.30;0.85;;;31.80;66.00;;;;;;949258;147;27446;-75
2022/06/24 08:14:05;;;;;;;0.98;0.98;;;32.80;63.80;;;;;;948605;147;26325;-76
2022/06/24 08:16:31;;;;;;;1.60;0.65;;;33.80;62.40;;;;;;949456;147;26337;-77
2022/06/24 08:18:58;;;;;;;0.95;0.95;;;34.60;60.30;;;;;;947296;147;26303;-77
2022/06/24 08:21:25;;;;;;;1.22;1.10;;;35.50;58.60;;;;;;948055;147;26330;-77
2022/06/24 08:23:51;;;;;;;1.10;1.00;;;36.20;56.70;;;;;;948179;147;26171;-76
2022/06/24 08:26:18;;;;;;;1.95;0.95;;;36.70;54.40;;;;;;947839;147;26246;-73
2022/06/24 08:28:44;;;;;;;0.85;0.85;;;37.00;52.40;;;;;;949396;147;26848;-76
2022/06/24 08:31:11;;;;;;;1.25;1.00;;;37.20;51.10;;;;;;949112;147;26229;-76
2022/06/24 08:33:38;;;;;;;2.00;0.62;;;37.20;50.70;;;;;;946728;147;26173;-75
2022/06/24 08:36:04;;;;;;;1.17;0.95;;;37.20;50.20;;;;;;948556;147;26336;-74
2022/06/24 08:38:31;;;;;;;2.00;0.85;;;37.20;49.70;;;;;;948596;147;26214;-74
2022/06/24 08:40:57;;;;;;;2.20;1.10;;;37.10;49.00;;;;;;947354;147;27344;-75
2022/06/24 08:43:24;;;;;;;1.17;0.90;;;36.80;48.00;;;;;;949137;147;27340;-75
2022/06/24 08:45:51;;;;;;;1.85;1.00;;;36.50;47.50;;;;;;950151;147;27815;-74
2022/06/24 08:48:17;;;;;;;1.15;0.98;;;36.00;47.30;;;;;;948488;147;27422;-74
2022/06/24 08:50:44;;;;;;;1.50;1.05;;;35.40;47.20;;;;;;948923;147;27410;-74
2022/06/24 08:53:10;;;;;;;2.20;1.27;;;34.80;47.60;;;;;;948684;147;27351;-74
2022/06/24 08:55:37;;;;;;;1.15;1.07;;;34.30;48.00;;;;;;948613;147;27392;-74
2022/06/24 08:58:09;;;;;;;1.20;1.05;;;33.90;48.90;;;;;;950442;147;27381;-74
2022/06/24 09:00:35;;;;;;;0.90;0.90;;;33.60;49.80;;;;;;948868;147;27339;-73
2022/06/24 09:05:42;;;;;;;2.12;1.00;;;33.50;50.30;;;;;;970890;144;38201;-74
2022/06/24 09:08:11;;;;;;;1.07;0.90;;;33.50;49.90;;;;;;951507;148;27417;-72
2022/06/24 09:10:41;;;;;;;1.00;0.80;;;33.40;49.90;;;;;;939613;149;27311;-75
2022/06/24 09:13:07;;;;;;;1.40;0.90;;;33.40;49.70;;;;;;939658;149;27319;-74
2022/06/24 09:15:34;;;;;;;1.98;1.05;;;33.40;49.60;;;;;;940012;149;27400;-72
2022/06/24 09:18:00;;;;;;;1.37;1.10;;;33.30;49.50;;;;;;941124;149;27311;-72
2022/06/24 09:20:27;;;;;;;1.27;0.90;;;33.20;49.40;;;;;;941725;149;27409;-74
2022/06/24 09:23:09;;;;;;;1.47;1.00;;;33.10;48.90;;;;;;939475;149;27334;-74
2022/06/24 09:25:42;;;;;;;1.62;1.12;;;32.90;48.70;;;;;;940565;149;27375;-72
2022/06/24 09:28:08;;;;;;;1.15;1.15;;;32.50;48.40;;;;;;941466;149;27479;-73
2022/06/24 09:30:35;;;;;;;1.45;1.27;;;32.20;48.50;;;;;;940268;149;27320;-72
2022/06/24 09:33:01;;;;;;;1.15;1.05;;;31.70;48.70;;;;;;940027;149;27278;-74
2022/06/24 09:35:28;;;;;;;1.90;1.20;;;31.30;49.00;;;;;;941897;149;27331;-74
2022/06/24 09:37:54;;;;;;;1.20;1.10;;;30.90;49.50;;;;;;940125;149;27303;-73
2022/06/24 09:40:21;;;;;;;1.17;1.15;;;30.50;50.00;;;;;;942032;149;27369;-72
2022/06/24 09:43:06;;;;;;;1.12;1.02;;;30.20;50.40;;;;;;942253;149;27328;-74
2022/06/24 09:45:44;;;;;;;2.33;1.10;;;29.90;50.80;;;;;;940953;149;27277;-74
2022/06/24 09:48:11;;;;;;;2.12;1.30;;;29.60;51.20;;;;;;940686;148;27334;-75
2022/06/24 09:50:38;;;;;;;1.45;0.82;;;29.40;51.60;;;;;;940139;149;27359;-73
2022/06/24 09:53:04;;;;;;;2.70;1.30;;;29.20;52.00;;;;;;939837;149;27317;-74
2022/06/24 09:55:31;;;;;;;1.42;1.15;;;29.10;52.30;;;;;;939952;149;28971;-72
2022/06/24 09:57:57;;;;;;;1.37;1.00;;;29.10;52.80;;;;;;940679;149;27301;-74
2022/06/24 10:00:42;;;;;;;0.82;0.82;;;29.20;53.60;;;;;;942973;149;27291;-73
2022/06/24 10:03:09;;;;;;;0.70;0.70;;;29.50;54.80;;;;;;939643;149;27467;-75
2022/06/24 10:05:36;;;;;;;1.40;0.90;;;30.10;55.50;;;;;;937031;149;27462;-75
2022/06/24 10:08:02;;;;;;;1.15;1.05;;;30.80;55.20;;;;;;935225;150;27436;-74
2022/06/24 10:10:28;;;;;;;1.10;1.00;;;31.60;54.40;;;;;;934709;150;27397;-76
2022/06/24 10:12:55;;;;;;;1.12;1.02;;;32.20;53.70;;;;;;934516;149;27354;-74
2022/06/24 10:15:21;;;;;;;1.52;0.90;;;32.90;52.60;;;;;;933405;150;27373;-72
2022/06/24 10:17:48;;;;;;;1.12;0.95;;;33.40;51.60;;;;;;935639;150;27420;-75
2022/06/24 10:20:15;;;;;;;3.60;0.98;;;33.90;50.20;;;;;;933757;150;27258;-75
2022/06/24 10:22:44;;;;;;;0.80;0.80;;;34.10;49.00;;;;;;936182;150;27312;-73
2022/06/24 10:25:10;;;;;;;2.05;1.30;;;34.30;48.40;;;;;;934532;150;27367;-75
2022/06/24 10:27:58;;;;;;;1.00;0.90;;;34.40;48.30;;;;;;934093;150;27311;-76
2022/06/24 10:30:40;;;;;;;0.90;0.90;;;34.40;48.00;;;;;;934339;149;27333;-75
2022/06/24 10:33:15;;;;;;;1.47;1.05;;;34.50;48.00;;;;;;935042;149;27416;-75
2022/06/24 10:35:57;;;;;;;1.20;1.10;;;34.60;47.60;;;;;;934590;150;27347;-73
2022/06/24 10:38:23;;;;;;;1.70;1.60;;;34.70;47.30;;;;;;918017;152;27358;-76
2022/06/24 10:40:50;;;;;;;1.15;1.00;;;34.70;46.80;;;;;;932881;149;27325;-76
2022/06/24 10:43:35;;;;;;;1.37;1.07;;;34.80;46.70;;;;;;929307;152;27331;-75
2022/06/24 10:46:14;;;;;;;2.33;1.25;;;34.70;46.70;;;;;;929988;151;27343;-75
2022/06/24 10:48:52;;;;;;;2.47;1.17;;;34.70;46.50;;;;;;928797;151;27492;-75
2022/06/24 10:51:21;;;;;;;1.42;1.17;;;34.80;46.60;;;;;;931798;151;27400;-75
2022/06/24 10:54:03;;;;;;;1.90;1.30;;;34.80;46.30;;;;;;930992;151;27408;-75
2022/06/24 10:56:48;;;;;;;1.95;1.22;;;34.70;45.80;;;;;;918940;151;27383;-73
2022/06/24 10:59:14;;;;;;;1.80;1.07;;;34.60;45.70;;;;;;929627;151;27435;-74
2022/06/24 11:01:42;;;;;;;0.93;0.93;;;34.40;45.60;;;;;;930213;151;27391;-75
2022/06/24 11:04:08;;;;;;;1.45;1.30;;;34.30;45.70;;;;;;929923;150;27416;-76
2022/06/24 11:06:34;;;;;;;2.62;1.40;;;34.10;45.60;;;;;;933009;151;27475;-75
2022/06/24 11:09:06;;;;;;;1.22;1.12;;;34.00;45.90;;;;;;942990;148;27349;-74
2022/06/24 11:11:33;;;;;;;1.10;1.00;;;33.80;45.70;;;;;;934134;151;27463;-75
2022/06/24 11:14:00;;;;;;;1.30;1.20;;;33.70;45.80;;;;;;933905;151;27885;-75
2022/06/24 11:16:27;;;;;;;0.82;0.82;;;33.60;45.80;;;;;;932314;151;27360;-75
2022/06/24 11:18:53;;;;;;;1.15;0.90;;;33.50;45.70;;;;;;933349;150;27352;-76
2022/06/24 11:21:19;;;;;;;1.50;1.17;;;33.30;45.80;;;;;;934884;151;27360;-76
2022/06/24 11:23:49;;;;;;;0.90;0.90;;;33.30;46.10;;;;;;931727;151;27456;-76
2022/06/24 11:26:16;;;;;;;1.12;1.02;;;33.10;46.00;;;;;;941348;149;27736;-76
2022/06/24 11:28:42;;;;;;;2.15;1.07;;;33.10;45.80;;;;;;932468;151;27303;-75
2022/06/24 11:31:24;;;;;;;1.40;0.98;;;33.00;46.00;;;;;;940588;147;27298;-73
2022/06/24 11:33:59;;;;;;;0.82;0.82;;;32.90;45.90;;;;;;916623;151;27362;-77
2022/06/24 11:36:27;;;;;;;0.57;0.57;;;32.90;45.60;;;;;;941168;149;27354;-76
2022/06/24 11:38:52;;;;;;;1.32;1.25;;;32.80;45.60;;;;;;941667;149;27400;-76
2022/06/24 11:41:34;;;;;;;0.90;0.72;;;32.70;45.70;;;;;;932925;151;27418;-75
2022/06/24 11:44:00;;;;;;;1.50;1.25;;;32.60;45.50;;;;;;942610;149;27316;-75
2022/06/24 11:46:27;;;;;;;1.20;1.10;;;32.50;45.70;;;;;;943121;149;27487;-76
2022/06/24 11:49:06;;;;;;;1.45;1.10;;;32.50;46.00;;;;;;924333;151;27432;-76
2022/06/24 11:51:32;;;;;;;1.10;1.00;;;32.40;46.00;;;;;;941739;148;27786;-74
2022/06/24 11:53:59;;;;;;;1.20;0.90;;;32.30;46.10;;;;;;933317;151;27366;-76
2022/06/24 11:56:29;;;;;;;1.00;1.00;;;32.30;46.00;;;;;;941508;149;27927;-75
2022/06/24 11:59:00;;;;;;;1.20;1.10;;;32.20;46.00;;;;;;943594;149;27288;-76
2022/06/24 12:01:27;;;;;;;1.80;0.93;;;32.20;46.00;;;;;;941061;149;27295;-76
2022/06/24 12:03:54;;;;;;;0.88;0.88;;;32.20;46.10;;;;;;942261;149;27320;-73
2022/06/24 12:06:20;;;;;;;1.85;1.00;;;32.20;46.20;;;;;;942499;147;27391;-77
2022/06/24 12:08:47;;;;;;;1.17;1.00;;;32.30;46.30;;;;;;941801;147;27305;-75
2022/06/24 12:11:16;;;;;;;2.00;0.98;;;32.30;46.30;;;;;;933811;149;28218;-76
2022/06/24 12:13:43;;;;;;;1.55;1.10;;;32.40;46.40;;;;;;930760;151;27897;-76
2022/06/24 12:16:09;;;;;;;1.47;0.78;;;32.50;46.30;;;;;;929055;151;27352;-74
2022/06/24 12:18:36;;;;;;;1.27;1.00;;;32.50;46.00;;;;;;930795;151;27465;-75
2022/06/24 12:21:05;;;;;;;0.82;0.82;;;32.60;45.70;;;;;;930428;151;27290;-77
2022/06/24 12:23:37;;;;;;;0.93;0.90;;;32.60;45.40;;;;;;929248;151;27441;-76
2022/06/24 12:26:07;;;;;;;3.85;0.85;;;32.60;45.40;;;;;;929615;151;27359;-73
2022/06/24 12:28:33;;;;;;;0.80;0.80;;;32.70;45.50;;;;;;928999;151;27478;-76
2022/06/24 12:31:03;;;;;;;1.25;0.93;;;32.60;45.20;;;;;;929213;151;27339;-74
2022/06/24 12:33:30;;;;;;;1.47;0.90;;;32.60;45.20;;;;;;929672;151;27516;-76
2022/06/24 12:36:02;;;;;;;1.15;0.95;;;32.70;45.40;;;;;;929316;151;27458;-73
2022/06/24 12:38:29;;;;;;;1.15;0.80;;;32.70;45.40;;;;;;931767;151;27391;-77
2022/06/24 12:41:10;;;;;;;0.90;0.90;;;32.70;45.30;;;;;;931303;151;27298;-76
2022/06/24 12:43:37;;;;;;;1.82;1.20;;;32.70;45.30;;;;;;928048;151;27361;-75
2022/06/24 12:46:04;;;;;;;0.60;0.60;;;32.80;45.10;;;;;;929041;151;27673;-75
2022/06/24 12:51:15;;;;;;;1.40;0.98;;;32.80;44.90;;;;;;929821;151;27516;-76
2022/06/24 12:53:52;;;;;;;2.17;1.00;;;32.80;45.50;;;;;;928964;152;27492;-75
2022/06/24 12:56:17;;;;;;;1.07;0.95;;;32.90;45.20;;;;;;929464;151;27355;-75
2022/06/24 12:58:43;;;;;;;0.90;0.90;;;33.00;45.10;;;;;;930574;151;27335;-76
2022/06/24 13:01:10;;;;;;;2.10;0.95;;;33.00;44.90;;;;;;929396;151;27353;-76